sensor_id;sensor_type;location;lat;lon;timestamp;P1;durP1;ratioP1;P2;durP2;ratioP2
63016;SDS011;50274;45.640;11.756;2023-08-21T00:01:28;10.38;;;9.02;;
63016;SDS011;50274;45.640;11.756;2023-08-21T00:03:54;11.20;;;8.53;;
63016;SDS011;50274;45.640;11.756;2023-08-21T00:06:20;11.75;;;8.35;;
63016;SDS011;50274;45.640;11.756;2023-08-21T00:08:46;11.05;;;8.65;;
63016;SDS011;50274;45.640;11.756;2023-08-21T00:11:12;11.02;;;8.63;;
63016;SDS011;50274;45.640;11.756;2023-08-21T00:13:38;12.13;;;9.23;;
63016;SDS011;50274;45.640;11.756;2023-08-21T00:16:04;12.50;;;9.70;;
63016;SDS011;50274;45.640;11.756;2023-08-21T00:18:30;11.93;;;8.48;;
63016;SDS011;50274;45.640;11.756;2023-08-21T00:20:57;12.20;;;10.13;;
63016;SDS011;50274;45.640;11.756;2023-08-21T00:23:23;12.57;;;9.52;;
63016;SDS011;50274;45.640;11.756;2023-08-21T00:25:49;11.23;;;9.73;;
63016;SDS011;50274;45.640;11.756;2023-08-21T00:28:15;11.25;;;9.65;;
63016;SDS011;50274;45.640;11.756;2023-08-21T00:30:41;13.07;;;10.35;;
63016;SDS011;50274;45.640;11.756;2023-08-21T00:33:08;14.80;;;10.55;;
63016;SDS011;50274;45.640;11.756;2023-08-21T00:35:33;14.05;;;10.45;;
63016;SDS011;50274;45.640;11.756;2023-08-21T00:37:59;11.50;;;10.00;;
63016;SDS011;50274;45.640;11.756;2023-08-21T00:40:26;11.82;;;10.23;;
63016;SDS011;50274;45.640;11.756;2023-08-21T00:42:52;13.15;;;10.02;;
63016;SDS011;50274;45.640;11.756;2023-08-21T00:45:18;13.15;;;9.82;;
63016;SDS011;50274;45.640;11.756;2023-08-21T00:47:44;11.82;;;9.23;;
63016;SDS011;50274;45.640;11.756;2023-08-21T00:50:10;13.27;;;9.17;;
63016;SDS011;50274;45.640;11.756;2023-08-21T00:52:38;12.63;;;9.63;;
63016;SDS011;50274;45.640;11.756;2023-08-21T00:55:06;11.85;;;9.23;;
63016;SDS011;50274;45.640;11.756;2023-08-21T00:57:33;11.82;;;9.05;;
63016;SDS011;50274;45.640;11.756;2023-08-21T01:00:01;11.52;;;9.30;;
63016;SDS011;50274;45.640;11.756;2023-08-21T01:02:29;14.07;;;9.27;;
63016;SDS011;50274;45.640;11.756;2023-08-21T01:04:55;10.65;;;8.95;;
63016;SDS011;50274;45.640;11.756;2023-08-21T01:07:21;11.90;;;10.13;;
63016;SDS011;50274;45.640;11.756;2023-08-21T01:12:37;12.75;;;10.15;;
63016;SDS011;50274;45.640;11.756;2023-08-21T01:15:10;13.93;;;10.47;;
63016;SDS011;50274;45.640;11.756;2023-08-21T01:17:37;12.93;;;10.00;;
63016;SDS011;50274;45.640;11.756;2023-08-21T01:20:05;15.30;;;10.35;;
63016;SDS011;50274;45.640;11.756;2023-08-21T01:22:36;12.10;;;10.00;;
63016;SDS011;50274;45.640;11.756;2023-08-21T01:25:05;12.63;;;10.38;;
63016;SDS011;50274;45.640;11.756;2023-08-21T01:27:33;13.90;;;10.27;;
63016;SDS011;50274;45.640;11.756;2023-08-21T01:30:00;12.40;;;10.05;;
63016;SDS011;50274;45.640;11.756;2023-08-21T01:35:05;12.10;;;9.02;;
63016;SDS011;50274;45.640;11.756;2023-08-21T01:37:32;11.07;;;9.13;;
63016;SDS011;50274;45.640;11.756;2023-08-21T01:39:59;11.70;;;8.60;;
63016;SDS011;50274;45.640;11.756;2023-08-21T01:42:25;11.88;;;9.32;;
63016;SDS011;50274;45.640;11.756;2023-08-21T01:44:51;12.02;;;9.73;;
63016;SDS011;50274;45.640;11.756;2023-08-21T01:47:17;12.40;;;9.65;;
63016;SDS011;50274;45.640;11.756;2023-08-21T01:49:43;10.83;;;8.33;;
63016;SDS011;50274;45.640;11.756;2023-08-21T01:52:09;12.77;;;9.75;;
63016;SDS011;50274;45.640;11.756;2023-08-21T01:54:35;12.20;;;9.45;;
63016;SDS011;50274;45.640;11.756;2023-08-21T01:57:01;15.35;;;10.05;;
63016;SDS011;50274;45.640;11.756;2023-08-21T01:59:28;13.18;;;10.40;;
63016;SDS011;50274;45.640;11.756;2023-08-21T02:01:54;12.43;;;9.73;;
63016;SDS011;50274;45.640;11.756;2023-08-21T02:04:19;12.95;;;9.73;;
63016;SDS011;50274;45.640;11.756;2023-08-21T02:06:45;14.25;;;9.45;;
63016;SDS011;50274;45.640;11.756;2023-08-21T02:09:11;13.50;;;10.35;;
63016;SDS011;50274;45.640;11.756;2023-08-21T02:11:37;12.43;;;10.30;;
63016;SDS011;50274;45.640;11.756;2023-08-21T02:14:03;14.43;;;9.95;;
63016;SDS011;50274;45.640;11.756;2023-08-21T02:16:29;12.23;;;10.23;;
63016;SDS011;50274;45.640;11.756;2023-08-21T02:18:55;12.07;;;9.52;;
63016;SDS011;50274;45.640;11.756;2023-08-21T02:21:22;14.35;;;10.25;;
63016;SDS011;50274;45.640;11.756;2023-08-21T02:23:48;14.17;;;10.97;;
63016;SDS011;50274;45.640;11.756;2023-08-21T02:26:14;13.55;;;9.88;;
63016;SDS011;50274;45.640;11.756;2023-08-21T02:28:41;12.98;;;9.18;;
63016;SDS011;50274;45.640;11.756;2023-08-21T02:31:11;11.98;;;9.70;;
63016;SDS011;50274;45.640;11.756;2023-08-21T02:33:37;12.40;;;10.07;;
63016;SDS011;50274;45.640;11.756;2023-08-21T02:36:03;14.00;;;9.50;;
63016;SDS011;50274;45.640;11.756;2023-08-21T02:38:29;15.65;;;10.80;;
63016;SDS011;50274;45.640;11.756;2023-08-21T02:40:55;15.05;;;9.63;;
63016;SDS011;50274;45.640;11.756;2023-08-21T02:43:21;12.13;;;9.90;;
63016;SDS011;50274;45.640;11.756;2023-08-21T02:45:47;11.70;;;9.52;;
63016;SDS011;50274;45.640;11.756;2023-08-21T02:48:13;12.95;;;9.77;;
63016;SDS011;50274;45.640;11.756;2023-08-21T02:50:39;13.93;;;9.63;;
63016;SDS011;50274;45.640;11.756;2023-08-21T02:53:06;13.10;;;10.25;;
63016;SDS011;50274;45.640;11.756;2023-08-21T02:55:32;11.77;;;9.25;;
63016;SDS011;50274;45.640;11.756;2023-08-21T02:57:58;13.82;;;9.85;;
63016;SDS011;50274;45.640;11.756;2023-08-21T03:00:24;14.57;;;9.00;;
63016;SDS011;50274;45.640;11.756;2023-08-21T03:02:49;14.65;;;9.23;;
63016;SDS011;50274;45.640;11.756;2023-08-21T03:05:15;11.13;;;9.03;;
63016;SDS011;50274;45.640;11.756;2023-08-21T03:07:42;11.38;;;9.13;;
63016;SDS011;50274;45.640;11.756;2023-08-21T03:10:08;11.65;;;9.40;;
63016;SDS011;50274;45.640;11.756;2023-08-21T03:12:34;11.98;;;8.90;;
63016;SDS011;50274;45.640;11.756;2023-08-21T03:15:00;13.00;;;9.83;;
63016;SDS011;50274;45.640;11.756;2023-08-21T03:17:26;14.32;;;9.43;;
63016;SDS011;50274;45.640;11.756;2023-08-21T03:19:52;12.18;;;9.32;;
63016;SDS011;50274;45.640;11.756;2023-08-21T03:22:17;10.73;;;8.50;;
63016;SDS011;50274;45.640;11.756;2023-08-21T03:24:43;13.50;;;8.40;;
63016;SDS011;50274;45.640;11.756;2023-08-21T03:27:09;11.38;;;8.65;;
63016;SDS011;50274;45.640;11.756;2023-08-21T03:29:35;10.70;;;8.87;;
63016;SDS011;50274;45.640;11.756;2023-08-21T03:32:01;12.40;;;8.52;;
63016;SDS011;50274;45.640;11.756;2023-08-21T03:34:27;11.18;;;8.35;;
63016;SDS011;50274;45.640;11.756;2023-08-21T03:36:52;12.70;;;8.30;;
63016;SDS011;50274;45.640;11.756;2023-08-21T03:39:18;10.98;;;8.93;;
63016;SDS011;50274;45.640;11.756;2023-08-21T03:41:44;11.40;;;8.23;;
63016;SDS011;50274;45.640;11.756;2023-08-21T03:44:10;12.25;;;8.73;;
63016;SDS011;50274;45.640;11.756;2023-08-21T03:46:36;12.98;;;8.63;;
63016;SDS011;50274;45.640;11.756;2023-08-21T03:49:01;10.63;;;8.80;;
63016;SDS011;50274;45.640;11.756;2023-08-21T03:51:27;12.32;;;9.43;;
63016;SDS011;50274;45.640;11.756;2023-08-21T03:53:53;11.43;;;8.80;;
63016;SDS011;50274;45.640;11.756;2023-08-21T03:56:19;11.60;;;8.43;;
63016;SDS011;50274;45.640;11.756;2023-08-21T03:58:45;12.02;;;8.90;;
63016;SDS011;50274;45.640;11.756;2023-08-21T04:01:11;10.63;;;8.43;;
63016;SDS011;50274;45.640;11.756;2023-08-21T04:03:36;14.83;;;8.47;;
63016;SDS011;50274;45.640;11.756;2023-08-21T04:06:02;11.32;;;8.77;;
63016;SDS011;50274;45.640;11.756;2023-08-21T04:08:28;11.63;;;8.30;;
63016;SDS011;50274;45.640;11.756;2023-08-21T04:10:54;12.73;;;8.37;;
63016;SDS011;50274;45.640;11.756;2023-08-21T04:13:24;13.52;;;9.23;;
63016;SDS011;50274;45.640;11.756;2023-08-21T04:15:50;14.38;;;9.52;;
63016;SDS011;50274;45.640;11.756;2023-08-21T04:18:18;12.15;;;8.57;;
63016;SDS011;50274;45.640;11.756;2023-08-21T04:20:44;12.03;;;7.93;;
63016;SDS011;50274;45.640;11.756;2023-08-21T04:23:10;13.35;;;8.60;;
63016;SDS011;50274;45.640;11.756;2023-08-21T04:25:35;12.43;;;8.20;;
63016;SDS011;50274;45.640;11.756;2023-08-21T04:28:01;11.53;;;8.03;;
63016;SDS011;50274;45.640;11.756;2023-08-21T04:30:27;11.02;;;8.23;;
63016;SDS011;50274;45.640;11.756;2023-08-21T04:32:53;10.50;;;7.88;;
63016;SDS011;50274;45.640;11.756;2023-08-21T04:35:19;11.60;;;8.60;;
63016;SDS011;50274;45.640;11.756;2023-08-21T04:37:48;12.10;;;8.43;;
63016;SDS011;50274;45.640;11.756;2023-08-21T04:40:14;11.02;;;7.57;;
63016;SDS011;50274;45.640;11.756;2023-08-21T04:42:40;11.98;;;8.23;;
63016;SDS011;50274;45.640;11.756;2023-08-21T04:45:06;12.90;;;8.00;;
63016;SDS011;50274;45.640;11.756;2023-08-21T04:47:32;10.52;;;7.97;;
63016;SDS011;50274;45.640;11.756;2023-08-21T04:49:58;11.27;;;8.43;;
63016;SDS011;50274;45.640;11.756;2023-08-21T04:52:24;10.63;;;8.40;;
63016;SDS011;50274;45.640;11.756;2023-08-21T04:54:51;11.05;;;7.93;;
63016;SDS011;50274;45.640;11.756;2023-08-21T04:57:17;10.85;;;8.13;;
63016;SDS011;50274;45.640;11.756;2023-08-21T04:59:44;11.25;;;8.23;;
63016;SDS011;50274;45.640;11.756;2023-08-21T05:02:10;11.30;;;7.87;;
63016;SDS011;50274;45.640;11.756;2023-08-21T05:04:37;10.25;;;7.57;;
63016;SDS011;50274;45.640;11.756;2023-08-21T05:07:04;9.93;;;8.15;;
63016;SDS011;50274;45.640;11.756;2023-08-21T05:09:31;9.50;;;7.78;;
63016;SDS011;50274;45.640;11.756;2023-08-21T05:11:58;11.13;;;7.60;;
63016;SDS011;50274;45.640;11.756;2023-08-21T05:14:25;10.60;;;7.40;;
63016;SDS011;50274;45.640;11.756;2023-08-21T05:16:51;13.10;;;8.35;;
63016;SDS011;50274;45.640;11.756;2023-08-21T05:19:17;11.50;;;8.30;;
63016;SDS011;50274;45.640;11.756;2023-08-21T05:21:44;10.38;;;7.82;;
63016;SDS011;50274;45.640;11.756;2023-08-21T05:24:11;14.00;;;8.00;;
63016;SDS011;50274;45.640;11.756;2023-08-21T05:26:37;10.77;;;8.10;;
63016;SDS011;50274;45.640;11.756;2023-08-21T05:29:04;10.30;;;8.27;;
63016;SDS011;50274;45.640;11.756;2023-08-21T05:31:30;12.35;;;7.82;;
63016;SDS011;50274;45.640;11.756;2023-08-21T05:33:57;11.43;;;7.75;;
63016;SDS011;50274;45.640;11.756;2023-08-21T05:36:23;9.47;;;7.80;;
63016;SDS011;50274;45.640;11.756;2023-08-21T05:38:50;10.65;;;8.20;;
63016;SDS011;50274;45.640;11.756;2023-08-21T05:41:17;12.55;;;8.65;;
63016;SDS011;50274;45.640;11.756;2023-08-21T05:43:43;10.48;;;8.30;;
63016;SDS011;50274;45.640;11.756;2023-08-21T05:46:10;10.15;;;8.25;;
63016;SDS011;50274;45.640;11.756;2023-08-21T05:48:36;9.73;;;7.77;;
63016;SDS011;50274;45.640;11.756;2023-08-21T05:51:03;10.98;;;8.40;;
63016;SDS011;50274;45.640;11.756;2023-08-21T05:53:30;10.52;;;7.63;;
63016;SDS011;50274;45.640;11.756;2023-08-21T05:55:56;10.05;;;7.95;;
63016;SDS011;50274;45.640;11.756;2023-08-21T05:58:22;11.67;;;7.83;;
63016;SDS011;50274;45.640;11.756;2023-08-21T06:00:49;11.18;;;7.95;;
63016;SDS011;50274;45.640;11.756;2023-08-21T06:03:15;12.65;;;8.82;;
63016;SDS011;50274;45.640;11.756;2023-08-21T06:05:41;11.80;;;8.60;;
63016;SDS011;50274;45.640;11.756;2023-08-21T06:08:09;10.50;;;8.85;;
63016;SDS011;50274;45.640;11.756;2023-08-21T06:10:35;11.07;;;8.77;;
63016;SDS011;50274;45.640;11.756;2023-08-21T06:13:01;12.98;;;8.52;;
63016;SDS011;50274;45.640;11.756;2023-08-21T06:15:28;12.82;;;9.15;;
63016;SDS011;50274;45.640;11.756;2023-08-21T06:17:54;11.20;;;8.18;;
63016;SDS011;50274;45.640;11.756;2023-08-21T06:20:20;10.65;;;8.10;;
63016;SDS011;50274;45.640;11.756;2023-08-21T06:22:47;10.93;;;8.20;;
63016;SDS011;50274;45.640;11.756;2023-08-21T06:25:13;13.00;;;8.77;;
63016;SDS011;50274;45.640;11.756;2023-08-21T06:27:39;11.30;;;9.10;;
63016;SDS011;50274;45.640;11.756;2023-08-21T06:30:06;11.80;;;8.40;;
63016;SDS011;50274;45.640;11.756;2023-08-21T06:32:33;10.33;;;7.67;;
63016;SDS011;50274;45.640;11.756;2023-08-21T06:34:59;10.85;;;8.90;;
63016;SDS011;50274;45.640;11.756;2023-08-21T06:37:25;11.55;;;8.20;;
63016;SDS011;50274;45.640;11.756;2023-08-21T06:39:52;11.23;;;9.27;;
63016;SDS011;50274;45.640;11.756;2023-08-21T06:42:18;11.37;;;8.67;;
63016;SDS011;50274;45.640;11.756;2023-08-21T06:44:44;14.23;;;9.95;;
63016;SDS011;50274;45.640;11.756;2023-08-21T06:47:11;14.20;;;9.82;;
63016;SDS011;50274;45.640;11.756;2023-08-21T06:49:37;11.38;;;9.13;;
63016;SDS011;50274;45.640;11.756;2023-08-21T06:52:10;12.52;;;9.43;;
63016;SDS011;50274;45.640;11.756;2023-08-21T06:54:47;11.93;;;9.20;;
63016;SDS011;50274;45.640;11.756;2023-08-21T06:57:22;11.18;;;9.10;;
63016;SDS011;50274;45.640;11.756;2023-08-21T07:00:00;11.57;;;9.23;;
63016;SDS011;50274;45.640;11.756;2023-08-21T07:02:34;12.90;;;9.18;;
63016;SDS011;50274;45.640;11.756;2023-08-21T07:05:07;11.20;;;9.57;;
63016;SDS011;50274;45.640;11.756;2023-08-21T07:07:37;9.83;;;8.37;;
63016;SDS011;50274;45.640;11.756;2023-08-21T07:10:03;10.77;;;8.82;;
63016;SDS011;50274;45.640;11.756;2023-08-21T07:12:34;9.75;;;8.13;;
63016;SDS011;50274;45.640;11.756;2023-08-21T07:15:10;11.10;;;8.10;;
63016;SDS011;50274;45.640;11.756;2023-08-21T07:17:36;12.60;;;8.40;;
63016;SDS011;50274;45.640;11.756;2023-08-21T07:20:08;11.05;;;8.70;;
63016;SDS011;50274;45.640;11.756;2023-08-21T07:22:47;11.90;;;9.27;;
63016;SDS011;50274;45.640;11.756;2023-08-21T07:25:28;10.07;;;8.60;;
63016;SDS011;50274;45.640;11.756;2023-08-21T07:28:03;11.87;;;9.17;;
63016;SDS011;50274;45.640;11.756;2023-08-21T07:30:43;10.68;;;9.15;;
63016;SDS011;50274;45.640;11.756;2023-08-21T07:33:15;10.52;;;8.93;;
63016;SDS011;50274;45.640;11.756;2023-08-21T07:36:03;11.95;;;8.52;;
63016;SDS011;50274;45.640;11.756;2023-08-21T07:38:43;9.82;;;8.23;;
63016;SDS011;50274;45.640;11.756;2023-08-21T07:41:11;11.03;;;8.60;;
63016;SDS011;50274;45.640;11.756;2023-08-21T07:43:39;10.63;;;8.20;;
63016;SDS011;50274;45.640;11.756;2023-08-21T07:46:08;10.13;;;8.02;;
63016;SDS011;50274;45.640;11.756;2023-08-21T07:48:38;11.00;;;8.30;;
63016;SDS011;50274;45.640;11.756;2023-08-21T07:51:04;10.40;;;8.70;;
63016;SDS011;50274;45.640;11.756;2023-08-21T07:53:30;11.73;;;9.07;;
63016;SDS011;50274;45.640;11.756;2023-08-21T07:55:56;10.80;;;9.05;;
63016;SDS011;50274;45.640;11.756;2023-08-21T07:58:26;10.45;;;8.32;;
63016;SDS011;50274;45.640;11.756;2023-08-21T08:00:52;10.90;;;7.77;;
63016;SDS011;50274;45.640;11.756;2023-08-21T08:03:18;10.65;;;8.50;;
63016;SDS011;50274;45.640;11.756;2023-08-21T08:05:44;9.10;;;7.53;;
63016;SDS011;50274;45.640;11.756;2023-08-21T08:08:10;10.27;;;7.80;;
63016;SDS011;50274;45.640;11.756;2023-08-21T08:10:39;13.05;;;8.02;;
63016;SDS011;50274;45.640;11.756;2023-08-21T08:13:06;10.93;;;8.33;;
63016;SDS011;50274;45.640;11.756;2023-08-21T08:15:32;10.43;;;8.45;;
63016;SDS011;50274;45.640;11.756;2023-08-21T08:18:00;11.95;;;8.90;;
63016;SDS011;50274;45.640;11.756;2023-08-21T08:20:27;11.10;;;8.68;;
63016;SDS011;50274;45.640;11.756;2023-08-21T08:22:54;10.10;;;8.35;;
63016;SDS011;50274;45.640;11.756;2023-08-21T08:25:20;9.50;;;7.93;;
63016;SDS011;50274;45.640;11.756;2023-08-21T08:27:46;10.20;;;8.45;;
63016;SDS011;50274;45.640;11.756;2023-08-21T08:30:12;12.23;;;8.52;;
63016;SDS011;50274;45.640;11.756;2023-08-21T08:32:39;10.55;;;8.13;;
63016;SDS011;50274;45.640;11.756;2023-08-21T08:35:10;10.57;;;8.32;;
63016;SDS011;50274;45.640;11.756;2023-08-21T08:37:40;9.17;;;7.43;;
63016;SDS011;50274;45.640;11.756;2023-08-21T08:40:06;11.85;;;7.90;;
63016;SDS011;50274;45.640;11.756;2023-08-21T08:42:34;11.18;;;8.85;;
63016;SDS011;50274;45.640;11.756;2023-08-21T08:45:02;10.80;;;7.88;;
63016;SDS011;50274;45.640;11.756;2023-08-21T08:47:31;10.15;;;8.07;;
63016;SDS011;50274;45.640;11.756;2023-08-21T08:50:04;10.20;;;8.70;;
63016;SDS011;50274;45.640;11.756;2023-08-21T08:52:34;12.70;;;8.77;;
63016;SDS011;50274;45.640;11.756;2023-08-21T08:55:01;12.02;;;8.77;;
63016;SDS011;50274;45.640;11.756;2023-08-21T08:57:28;11.88;;;8.30;;
63016;SDS011;50274;45.640;11.756;2023-08-21T08:59:55;11.20;;;8.20;;
63016;SDS011;50274;45.640;11.756;2023-08-21T09:02:21;10.63;;;8.20;;
63016;SDS011;50274;45.640;11.756;2023-08-21T09:04:48;10.70;;;8.55;;
63016;SDS011;50274;45.640;11.756;2023-08-21T09:07:16;11.45;;;8.18;;
63016;SDS011;50274;45.640;11.756;2023-08-21T09:09:45;11.30;;;8.67;;
63016;SDS011;50274;45.640;11.756;2023-08-21T09:12:14;13.30;;;8.85;;
63016;SDS011;50274;45.640;11.756;2023-08-21T09:14:42;9.88;;;8.35;;
63016;SDS011;50274;45.640;11.756;2023-08-21T09:17:09;11.27;;;7.95;;
63016;SDS011;50274;45.640;11.756;2023-08-21T09:19:35;9.90;;;8.55;;
63016;SDS011;50274;45.640;11.756;2023-08-21T09:22:08;13.00;;;8.43;;
63016;SDS011;50274;45.640;11.756;2023-08-21T09:24:36;12.35;;;8.65;;
63016;SDS011;50274;45.640;11.756;2023-08-21T09:27:03;13.38;;;8.45;;
63016;SDS011;50274;45.640;11.756;2023-08-21T09:29:39;11.32;;;8.40;;
63016;SDS011;50274;45.640;11.756;2023-08-21T09:32:05;9.57;;;8.00;;
63016;SDS011;50274;45.640;11.756;2023-08-21T09:34:35;12.40;;;7.97;;
63016;SDS011;50274;45.640;11.756;2023-08-21T09:37:06;9.52;;;8.15;;
63016;SDS011;50274;45.640;11.756;2023-08-21T09:39:37;10.00;;;8.68;;
63016;SDS011;50274;45.640;11.756;2023-08-21T09:42:38;11.70;;;8.30;;
63016;SDS011;50274;45.640;11.756;2023-08-21T09:45:20;12.82;;;8.30;;
63016;SDS011;50274;45.640;11.756;2023-08-21T09:47:59;12.17;;;8.70;;
63016;SDS011;50274;45.640;11.756;2023-08-21T09:50:36;9.05;;;7.80;;
63016;SDS011;50274;45.640;11.756;2023-08-21T09:53:12;10.20;;;8.38;;
63016;SDS011;50274;45.640;11.756;2023-08-21T09:55:58;12.82;;;8.52;;
63016;SDS011;50274;45.640;11.756;2023-08-21T09:58:44;11.82;;;8.40;;
63016;SDS011;50274;45.640;11.756;2023-08-21T10:02:03;10.23;;;8.03;;
63016;SDS011;50274;45.640;11.756;2023-08-21T10:04:43;12.73;;;8.77;;
63016;SDS011;50274;45.640;11.756;2023-08-21T10:07:31;14.13;;;8.73;;
63016;SDS011;50274;45.640;11.756;2023-08-21T10:10:00;12.77;;;8.20;;
63016;SDS011;50274;45.640;11.756;2023-08-21T10:12:33;10.73;;;8.82;;
63016;SDS011;50274;45.640;11.756;2023-08-21T10:15:07;11.63;;;8.47;;
63016;SDS011;50274;45.640;11.756;2023-08-21T10:17:43;11.90;;;8.57;;
63016;SDS011;50274;45.640;11.756;2023-08-21T10:20:26;11.00;;;9.07;;
63016;SDS011;50274;45.640;11.756;2023-08-21T10:23:05;11.68;;;8.07;;
63016;SDS011;50274;45.640;11.756;2023-08-21T10:25:58;10.38;;;8.85;;
63016;SDS011;50274;45.640;11.756;2023-08-21T10:28:47;10.97;;;8.40;;
63016;SDS011;50274;45.640;11.756;2023-08-21T10:31:44;9.95;;;8.75;;
63016;SDS011;50274;45.640;11.756;2023-08-21T10:34:37;8.73;;;7.40;;
63016;SDS011;50274;45.640;11.756;2023-08-21T10:37:22;10.00;;;7.90;;
63016;SDS011;50274;45.640;11.756;2023-08-21T10:40:03;13.25;;;8.07;;
63016;SDS011;50274;45.640;11.756;2023-08-21T10:42:51;10.40;;;7.67;;
63016;SDS011;50274;45.640;11.756;2023-08-21T10:46:04;11.82;;;7.65;;
63016;SDS011;50274;45.640;11.756;2023-08-21T10:48:43;9.05;;;7.00;;
63016;SDS011;50274;45.640;11.756;2023-08-21T10:51:09;10.15;;;7.78;;
63016;SDS011;50274;45.640;11.756;2023-08-21T10:53:37;11.70;;;8.65;;
63016;SDS011;50274;45.640;11.756;2023-08-21T10:56:10;11.63;;;8.30;;
63016;SDS011;50274;45.640;11.756;2023-08-21T10:58:52;9.95;;;7.53;;
63016;SDS011;50274;45.640;11.756;2023-08-21T11:01:24;9.35;;;7.40;;
63016;SDS011;50274;45.640;11.756;2023-08-21T11:04:22;9.50;;;7.25;;
63016;SDS011;50274;45.640;11.756;2023-08-21T11:06:53;8.98;;;7.55;;
63016;SDS011;50274;45.640;11.756;2023-08-21T11:09:21;10.13;;;7.30;;
63016;SDS011;50274;45.640;11.756;2023-08-21T11:11:47;10.55;;;7.10;;
63016;SDS011;50274;45.640;11.756;2023-08-21T11:14:13;10.75;;;7.03;;
63016;SDS011;50274;45.640;11.756;2023-08-21T11:16:38;9.90;;;6.60;;
63016;SDS011;50274;45.640;11.756;2023-08-21T11:19:05;10.07;;;6.47;;
63016;SDS011;50274;45.640;11.756;2023-08-21T11:21:31;10.07;;;6.85;;
63016;SDS011;50274;45.640;11.756;2023-08-21T11:23:56;8.73;;;6.67;;
63016;SDS011;50274;45.640;11.756;2023-08-21T11:26:24;8.52;;;6.60;;
63016;SDS011;50274;45.640;11.756;2023-08-21T11:28:50;7.78;;;6.43;;
63016;SDS011;50274;45.640;11.756;2023-08-21T11:31:17;9.82;;;6.63;;
63016;SDS011;50274;45.640;11.756;2023-08-21T11:33:49;9.30;;;6.27;;
63016;SDS011;50274;45.640;11.756;2023-08-21T11:36:15;8.75;;;6.50;;
63016;SDS011;50274;45.640;11.756;2023-08-21T11:38:42;9.57;;;7.30;;
63016;SDS011;50274;45.640;11.756;2023-08-21T11:41:08;8.48;;;6.47;;
63016;SDS011;50274;45.640;11.756;2023-08-21T11:43:39;8.23;;;6.47;;
63016;SDS011;50274;45.640;11.756;2023-08-21T11:46:11;9.75;;;6.50;;
63016;SDS011;50274;45.640;11.756;2023-08-21T11:48:38;8.63;;;6.53;;
63016;SDS011;50274;45.640;11.756;2023-08-21T11:51:05;9.10;;;6.57;;
63016;SDS011;50274;45.640;11.756;2023-08-21T11:53:34;6.80;;;5.65;;
63016;SDS011;50274;45.640;11.756;2023-08-21T11:56:03;8.77;;;6.20;;
63016;SDS011;50274;45.640;11.756;2023-08-21T11:58:39;8.75;;;6.15;;
63016;SDS011;50274;45.640;11.756;2023-08-21T12:01:48;9.45;;;6.38;;
63016;SDS011;50274;45.640;11.756;2023-08-21T12:03:58;8.18;;;5.95;;
63016;SDS011;50274;45.640;11.756;2023-08-21T12:06:26;8.80;;;6.35;;
63016;SDS011;50274;45.640;11.756;2023-08-21T12:08:57;9.27;;;6.57;;
63016;SDS011;50274;45.640;11.756;2023-08-21T12:11:25;9.20;;;6.63;;
63016;SDS011;50274;45.640;11.756;2023-08-21T12:13:51;8.60;;;6.35;;
63016;SDS011;50274;45.640;11.756;2023-08-21T12:16:17;7.85;;;6.30;;
63016;SDS011;50274;45.640;11.756;2023-08-21T12:18:45;8.27;;;6.10;;
63016;SDS011;50274;45.640;11.756;2023-08-21T12:21:15;10.10;;;6.70;;
63016;SDS011;50274;45.640;11.756;2023-08-21T12:23:41;10.90;;;6.72;;
63016;SDS011;50274;45.640;11.756;2023-08-21T12:26:12;10.05;;;6.30;;
63016;SDS011;50274;45.640;11.756;2023-08-21T12:28:46;10.20;;;6.50;;
63016;SDS011;50274;45.640;11.756;2023-08-21T12:31:12;8.90;;;6.03;;
63016;SDS011;50274;45.640;11.756;2023-08-21T12:33:40;10.75;;;6.50;;
63016;SDS011;50274;45.640;11.756;2023-08-21T12:36:06;8.68;;;6.65;;
63016;SDS011;50274;45.640;11.756;2023-08-21T12:38:35;8.02;;;6.75;;
63016;SDS011;50274;45.640;11.756;2023-08-21T12:41:04;11.80;;;6.83;;
63016;SDS011;50274;45.640;11.756;2023-08-21T12:43:30;9.13;;;6.28;;
63016;SDS011;50274;45.640;11.756;2023-08-21T12:45:56;7.97;;;6.47;;
63016;SDS011;50274;45.640;11.756;2023-08-21T12:48:22;10.15;;;6.85;;
63016;SDS011;50274;45.640;11.756;2023-08-21T12:50:53;8.07;;;6.03;;
63016;SDS011;50274;45.640;11.756;2023-08-21T12:53:21;8.77;;;6.00;;
63016;SDS011;50274;45.640;11.756;2023-08-21T12:55:47;6.93;;;5.60;;
63016;SDS011;50274;45.640;11.756;2023-08-21T12:58:14;11.02;;;6.53;;
63016;SDS011;50274;45.640;11.756;2023-08-21T13:00:40;9.80;;;5.93;;
63016;SDS011;50274;45.640;11.756;2023-08-21T13:03:08;8.00;;;6.03;;
63016;SDS011;50274;45.640;11.756;2023-08-21T13:05:34;8.18;;;6.05;;
63016;SDS011;50274;45.640;11.756;2023-08-21T13:07:59;10.07;;;6.63;;
63016;SDS011;50274;45.640;11.756;2023-08-21T13:10:27;9.80;;;6.85;;
63016;SDS011;50274;45.640;11.756;2023-08-21T13:12:53;7.90;;;6.10;;
63016;SDS011;50274;45.640;11.756;2023-08-21T13:15:19;8.65;;;6.57;;
63016;SDS011;50274;45.640;11.756;2023-08-21T13:17:45;9.15;;;6.00;;
63016;SDS011;50274;45.640;11.756;2023-08-21T13:20:13;8.65;;;5.97;;
63016;SDS011;50274;45.640;11.756;2023-08-21T13:22:48;7.77;;;5.77;;
63016;SDS011;50274;45.640;11.756;2023-08-21T13:25:21;11.75;;;6.65;;
63016;SDS011;50274;45.640;11.756;2023-08-21T13:27:49;9.02;;;6.95;;
63016;SDS011;50274;45.640;11.756;2023-08-21T13:30:18;9.57;;;5.90;;
63016;SDS011;50274;45.640;11.756;2023-08-21T13:32:45;8.50;;;6.15;;
63016;SDS011;50274;45.640;11.756;2023-08-21T13:35:14;10.27;;;6.30;;
63016;SDS011;50274;45.640;11.756;2023-08-21T13:37:42;9.73;;;6.32;;
63016;SDS011;50274;45.640;11.756;2023-08-21T13:40:12;9.73;;;6.68;;
63016;SDS011;50274;45.640;11.756;2023-08-21T13:42:43;7.93;;;6.38;;
63016;SDS011;50274;45.640;11.756;2023-08-21T13:45:10;7.82;;;6.47;;
63016;SDS011;50274;45.640;11.756;2023-08-21T13:47:41;9.83;;;6.63;;
63016;SDS011;50274;45.640;11.756;2023-08-21T13:50:11;10.00;;;6.30;;
63016;SDS011;50274;45.640;11.756;2023-08-21T13:52:37;8.25;;;6.47;;
63016;SDS011;50274;45.640;11.756;2023-08-21T13:55:06;8.45;;;6.32;;
63016;SDS011;50274;45.640;11.756;2023-08-21T13:57:33;8.57;;;6.13;;
63016;SDS011;50274;45.640;11.756;2023-08-21T13:59:59;8.93;;;6.73;;
63016;SDS011;50274;45.640;11.756;2023-08-21T14:02:25;7.90;;;5.90;;
63016;SDS011;50274;45.640;11.756;2023-08-21T14:04:52;8.05;;;6.47;;
63016;SDS011;50274;45.640;11.756;2023-08-21T14:07:17;8.25;;;6.28;;
63016;SDS011;50274;45.640;11.756;2023-08-21T14:09:43;9.10;;;6.43;;
63016;SDS011;50274;45.640;11.756;2023-08-21T14:12:11;11.80;;;6.40;;
63016;SDS011;50274;45.640;11.756;2023-08-21T14:14:37;10.30;;;6.63;;
63016;SDS011;50274;45.640;11.756;2023-08-21T14:17:03;11.10;;;6.47;;
63016;SDS011;50274;45.640;11.756;2023-08-21T14:19:29;10.60;;;7.13;;
63016;SDS011;50274;45.640;11.756;2023-08-21T14:21:57;12.63;;;6.50;;
63016;SDS011;50274;45.640;11.756;2023-08-21T14:24:26;7.82;;;6.72;;
63016;SDS011;50274;45.640;11.756;2023-08-21T14:26:54;7.93;;;6.57;;
63016;SDS011;50274;45.640;11.756;2023-08-21T14:29:20;12.10;;;7.40;;
63016;SDS011;50274;45.640;11.756;2023-08-21T14:31:46;9.18;;;6.93;;
63016;SDS011;50274;45.640;11.756;2023-08-21T14:34:13;9.95;;;6.93;;
63016;SDS011;50274;45.640;11.756;2023-08-21T14:36:41;8.02;;;6.70;;
63016;SDS011;50274;45.640;11.756;2023-08-21T14:39:07;8.30;;;6.20;;